Time;durP1;ratioP1;P1;durP2;ratioP2;P2;SDS_P1;SDS_P2;PMS_P1;PMS_P2;Temp;Humidity;BMP_temperature;BMP_pressure;BME280_temperature;BME280_humidity;BME280_pressure;Samples;Min_cycle;Max_cycle;Signal;HPM_P1;HPM_P2
2022/09/13 00:00:28;;;;;;;45.05;8.77;;;;;;;17.34;100.00;97606.84;5031918;28;20131;-56
2022/09/13 00:02:54;;;;;;;38.35;8.25;;;;;;;17.28;100.00;97609.97;5038744;28;20021;-54
2022/09/13 00:05:19;;;;;;;37.80;7.72;;;;;;;17.57;100.00;97606.91;5007230;28;20086;-54
2022/09/13 00:07:44;;;;;;;36.78;7.95;;;;;;;17.59;100.00;97610.28;5034572;28;20108;-54
2022/09/13 00:10:10;;;;;;;48.17;9.13;;;;;;;17.33;100.00;97607.81;5029468;28;20102;-55
2022/09/13 00:12:35;;;;;;;34.38;6.72;;;;;;;18.16;100.00;97611.22;5033057;28;20053;-57
2022/09/13 00:15:01;;;;;;;34.97;7.85;;;;;;;17.34;100.00;97610.31;5039341;28;20546;-56
2022/09/13 00:17:26;;;;;;;38.63;7.50;;;;;;;17.57;100.00;97606.91;5038898;28;20152;-55
2022/09/13 00:19:51;;;;;;;39.13;8.27;;;;;;;17.36;100.00;97599.66;5033899;28;20032;-55
2022/09/13 00:22:17;;;;;;;37.95;7.88;;;;;;;17.59;100.00;97590.03;5035341;28;20075;-55
2022/09/13 00:24:42;;;;;;;35.53;7.70;;;;;;;17.49;100.00;97596.94;5037260;28;20054;-57
2022/09/13 00:27:07;;;;;;;39.70;8.05;;;;;;;17.66;100.00;97582.47;5035749;28;20513;-57
2022/09/13 00:29:33;;;;;;;45.00;8.40;;;;;;;17.30;100.00;97582.53;5041601;28;20573;-54
2022/09/13 00:31:58;;;;;;;34.47;8.05;;;;;;;16.92;100.00;97574.84;5033215;28;20051;-55
2022/09/13 00:34:24;;;;;;;34.78;7.30;;;;;;;17.06;100.00;97585.19;5035154;28;20029;-56
2022/09/13 00:36:49;;;;;;;38.63;7.95;;;;;;;17.34;100.00;97578.69;5034713;28;20886;-55
2022/09/13 00:39:14;;;;;;;32.80;6.63;;;;;;;17.92;100.00;97586.63;5035607;28;20114;-55
2022/09/13 00:41:40;;;;;;;35.83;7.20;;;;;;;17.55;100.00;97572.75;5034638;28;20792;-55
2022/09/13 00:44:44;;;;;;;40.85;7.95;;;;;;;17.24;100.00;97571.59;5039579;28;20530;-57
2022/09/13 00:47:11;;;;;;;35.33;7.28;;;;;;;17.12;100.00;97584.72;5035539;28;20044;-57
2022/09/13 00:49:39;;;;;;;33.17;6.80;;;;;;;17.23;100.00;97585.75;5034621;28;20808;-57
2022/09/13 00:52:09;;;;;;;38.15;8.18;;;;;;;16.92;100.00;97572.19;5034080;28;20049;-54
2022/09/13 00:54:49;;;;;;;42.50;8.45;;;;;;;16.57;100.00;97580.84;5039076;28;20407;-54
2022/09/13 00:57:18;;;;;;;37.60;8.57;;;;;;;16.25;100.00;97575.25;5036650;28;20043;-55
2022/09/13 00:59:55;;;;;;;41.95;7.93;;;;;;;16.68;100.00;97559.84;5039197;28;20209;-55
2022/09/13 01:02:21;;;;;;;37.25;8.05;;;;;;;16.58;100.00;97561.47;5036271;28;20517;-57
2022/09/13 01:04:46;;;;;;;31.20;6.90;;;;;;;16.80;100.00;97568.66;5034655;28;20052;-55
2022/09/13 01:07:15;;;;;;;35.78;7.80;;;;;;;16.57;100.00;97567.69;5034689;28;20037;-55
2022/09/13 01:09:44;;;;;;;39.90;7.50;;;;;;;16.65;100.00;97565.34;5037149;28;20037;-55
2022/09/13 01:12:19;;;;;;;38.80;8.55;;;;;;;16.43;100.00;97562.56;5033345;28;20049;-55
2022/09/13 01:14:46;;;;;;;38.67;8.43;;;;;;;16.43;100.00;97555.53;5038451;28;20028;-57
2022/09/13 01:17:12;;;;;;;41.50;8.50;;;;;;;16.94;100.00;97559.75;5019275;28;20045;-55
2022/09/13 01:19:37;;;;;;;31.63;6.43;;;;;;;17.19;100.00;97566.69;5042867;28;20043;-55
2022/09/13 01:22:34;;;;;;;41.63;8.13;;;;;;;16.37;100.00;97569.09;5036138;28;20132;-55
2022/09/13 01:25:30;;;;;;;33.58;7.78;;;;;;;16.12;100.00;97578.75;5042926;28;20033;-54
2022/09/13 01:28:21;;;;;;;35.72;7.68;;;;;;;16.61;100.00;97568.31;5043593;28;20052;-55
2022/09/13 01:31:06;;;;;;;35.80;7.82;;;;;;;16.08;100.00;97576.44;5001240;28;20044;-55
2022/09/13 01:33:37;;;;;;;44.22;8.55;;;;;;;16.47;100.00;97571.91;5042023;28;20099;-57
2022/09/13 01:36:31;;;;;;;38.08;7.85;;;;;;;16.90;100.00;97556.50;5037938;28;20041;-57
2022/09/13 01:39:28;;;;;;;39.92;7.78;;;;;;;16.75;100.00;97561.06;5045062;28;20025;-54
2022/09/13 01:42:38;;;;;;;39.10;8.30;;;;;;;17.14;100.00;97555.63;5032058;28;20049;-55
2022/09/13 01:45:22;;;;;;;31.88;7.85;;;;;;;16.19;100.00;97558.97;4998887;28;20048;-56
2022/09/13 01:48:37;;;;;;;36.28;7.55;;;;;;;16.63;100.00;97561.97;5037932;28;20029;-55
2022/09/13 01:51:10;;;;;;;47.45;9.10;;;;;;;16.40;100.00;97562.81;4998333;28;20143;-55
2022/09/13 01:53:50;;;;;;;49.35;8.27;;;;;;;16.26;100.00;97561.16;5037659;28;20029;-55
2022/09/13 01:56:39;;;;;;;34.70;7.03;;;;;;;16.40;100.00;97563.63;5037442;28;20049;-55
2022/09/13 01:59:13;;;;;;;35.17;7.50;;;;;;;16.70;100.00;97562.38;5038729;28;20017;-55
2022/09/13 02:02:09;;;;;;;38.38;7.80;;;;;;;16.73;100.00;97557.72;5038896;28;20059;-56
2022/09/13 02:04:41;;;;;;;40.70;7.72;;;;;;;16.73;100.00;97567.41;5019114;28;20526;-55
2022/09/13 02:07:13;;;;;;;38.70;7.72;;;;;;;16.76;100.00;97561.91;5037179;28;20040;-55
2022/09/13 02:09:43;;;;;;;40.97;8.80;;;;;;;15.98;100.00;97569.19;5039374;28;20029;-56
2022/09/13 02:12:29;;;;;;;33.03;7.75;;;;;;;15.98;100.00;97571.81;5036700;28;20040;-55
2022/09/13 02:14:57;;;;;;;40.40;8.23;;;;;;;17.01;100.00;97550.44;5038395;28;20025;-57
2022/09/13 02:17:27;;;;;;;40.55;8.52;;;;;;;17.12;100.00;97550.47;5038263;28;20041;-55
2022/09/13 02:19:58;;;;;;;42.25;7.70;;;;;;;16.84;100.00;97556.97;5040803;28;20028;-56
2022/09/13 02:22:39;;;;;;;37.47;8.65;;;;;;;16.88;100.00;97549.69;5039000;28;20037;-58
2022/09/13 02:25:18;;;;;;;45.10;9.13;;;;;;;16.40;100.00;97552.28;5040803;28;20694;-55
2022/09/13 02:27:48;;;;;;;39.92;8.95;;;;;;;16.57;100.00;97536.09;5038718;28;20029;-58
2022/09/13 02:30:14;;;;;;;41.08;8.73;;;;;;;16.61;100.00;97527.00;5035619;28;20519;-59
2022/09/13 02:33:23;;;;;;;42.15;8.77;;;;;;;16.84;100.00;97527.16;5038754;28;20279;-55
2022/09/13 02:36:03;;;;;;;35.30;8.27;;;;;;;16.84;100.00;97520.09;4998088;28;20090;-58
2022/09/13 02:38:44;;;;;;;41.45;8.70;;;;;;;16.89;100.00;97525.88;5040661;28;20029;-57
2022/09/13 02:41:19;;;;;;;45.80;9.10;;;;;;;16.81;100.00;97527.34;5034260;28;20182;-56
2022/09/13 02:43:57;;;;;;;39.70;9.00;;;;;;;16.29;100.00;97511.78;5038559;28;20024;-54
2022/09/13 02:46:57;;;;;;;32.53;7.82;;;;;;;17.02;100.00;97512.63;5021104;28;20117;-56
2022/09/13 02:49:40;;;;;;;32.00;8.43;;;;;;;16.87;100.00;97511.09;5038597;28;20060;-55
2022/09/13 02:52:18;;;;;;;41.83;9.40;;;;;;;16.39;100.00;97511.94;5035703;28;20038;-55
2022/09/13 02:55:13;;;;;;;37.83;8.85;;;;;;;16.32;100.00;97519.44;5035407;28;20022;-55
2022/09/13 02:57:47;;;;;;;37.72;8.20;;;;;;;16.36;100.00;97513.00;4997593;28;20053;-55
2022/09/13 03:00:13;;;;;;;33.03;8.00;;;;;;;16.71;100.00;97512.22;5038333;28;20087;-55
2022/09/13 03:02:41;;;;;;;26.70;7.90;;;;;;;16.47;100.00;97512.22;5036293;28;20774;-55
2022/09/13 03:05:07;;;;;;;40.60;8.88;;;;;;;16.16;100.00;97518.88;5034428;28;20445;-58
2022/09/13 03:07:32;;;;;;;48.60;8.75;;;;;;;16.81;100.00;97506.28;5041000;28;20025;-57
2022/09/13 03:10:05;;;;;;;34.65;8.23;;;;;;;16.22;100.00;97500.00;5036475;28;20039;-54
2022/09/13 03:12:50;;;;;;;47.03;8.60;;;;;;;16.32;100.00;97501.03;5035665;28;20144;-55
2022/09/13 03:15:34;;;;;;;35.60;7.65;;;;;;;16.18;100.00;97494.13;5040273;28;20051;-55
2022/09/13 03:18:15;;;;;;;43.08;8.40;;;;;;;16.49;100.00;97496.34;5038982;28;20052;-55
2022/09/13 03:21:08;;;;;;;38.45;8.18;;;;;;;16.94;100.00;97497.34;5035606;28;20533;-54
2022/09/13 03:23:50;;;;;;;38.20;7.40;;;;;;;17.34;100.00;97493.50;5039131;28;20052;-55
2022/09/13 03:26:25;;;;;;;;;;;;;;;15.97;100.00;97493.88;5038983;28;20048;-55
2022/09/13 03:29:10;;;;;;;34.55;7.72;;;;;;;16.09;100.00;97496.56;5041101;28;19924;-54
2022/09/13 03:31:44;;;;;;;44.30;9.10;;;;;;;15.58;100.00;97506.19;5035648;28;20586;-55
2022/09/13 03:34:19;;;;;;;40.03;8.90;;;;;;;15.19;100.00;97520.28;5035499;28;20032;-55
2022/09/13 03:36:51;;;;;;;38.85;8.38;;;;;;;15.64;100.00;97499.69;5036470;28;20347;-55
2022/09/13 03:39:38;;;;;;;33.90;7.88;;;;;;;16.06;100.00;97505.50;5037729;28;20032;-57
2022/09/13 03:42:28;;;;;;;45.28;9.35;;;;;;;15.61;100.00;97495.47;5032065;28;20518;-57
2022/09/13 03:44:56;;;;;;;54.80;9.98;;;;;;;15.81;100.00;97493.28;5019302;28;20470;-54
2022/09/13 03:47:26;;;;;;;37.70;8.35;;;;;;;16.30;100.00;97481.03;5034657;28;20377;-56
2022/09/13 03:49:54;;;;;;;39.67;8.20;;;;;;;16.09;100.00;97486.06;5034071;28;20983;-56
2022/09/13 03:52:19;;;;;;;35.88;8.38;;;;;;;15.70;100.00;97485.28;5033967;28;20828;-56
2022/09/13 03:54:44;;;;;;;34.10;8.27;;;;;;;15.66;100.00;97489.03;5037991;28;20804;-56
2022/09/13 03:57:14;;;;;;;39.47;8.32;;;;;;;15.80;100.00;97491.56;5040008;28;20397;-55
2022/09/13 03:59:50;;;;;;;44.72;8.57;;;;;;;15.56;100.00;97487.06;5038364;28;20836;-55
2022/09/13 04:02:17;;;;;;;42.25;8.27;;;;;;;15.80;100.00;97494.22;5033214;28;20188;-58
2022/09/13 04:04:44;;;;;;;30.75;6.72;;;;;;;16.45;100.00;97508.00;5036179;28;20960;-55
2022/09/13 04:07:12;;;;;;;36.10;6.78;;;;;;;16.06;100.00;97517.81;5035675;28;20048;-55
2022/09/13 04:09:38;;;;;;;40.45;8.30;;;;;;;15.90;100.00;97500.50;5037033;28;20097;-55
2022/09/13 04:12:04;;;;;;;43.90;8.98;;;;;;;15.56;100.00;97487.06;5038592;28;20587;-55
2022/09/13 04:14:29;;;;;;;39.67;8.27;;;;;;;15.85;100.00;97486.00;5036449;28;20101;-54
2022/09/13 04:16:56;;;;;;;35.55;8.23;;;;;;;15.90;100.00;97492.63;5038106;28;20037;-57
2022/09/13 04:19:23;;;;;;;38.85;8.23;;;;;;;15.84;100.00;97484.31;5038932;28;20736;-57
2022/09/13 04:21:49;;;;;;;34.42;7.50;;;;;;;16.19;100.00;97479.16;5042321;28;20044;-55
2022/09/13 04:24:17;;;;;;;39.35;8.20;;;;;;;16.15;100.00;97485.59;5037542;28;20057;-54
2022/09/13 04:26:43;;;;;;;31.30;7.85;;;;;;;16.00;100.00;97496.25;5034636;28;20041;-54
2022/09/13 04:29:08;;;;;;;40.55;8.43;;;;;;;16.38;100.00;97489.22;5037255;28;20039;-55
2022/09/13 04:31:33;;;;;;;37.63;8.63;;;;;;;15.71;100.00;97493.03;5034760;28;20044;-56
2022/09/13 04:33:59;;;;;;;40.65;9.15;;;;;;;15.77;100.00;97494.44;5035312;28;20021;-57
2022/09/13 04:36:25;;;;;;;44.92;9.32;;;;;;;15.48;100.00;97499.91;5036432;28;20389;-54
2022/09/13 04:38:50;;;;;;;34.97;8.68;;;;;;;15.79;100.00;97497.81;5007988;28;20143;-57
2022/09/13 04:41:16;;;;;;;33.28;7.75;;;;;;;16.68;100.00;97501.91;5017573;28;20064;-55
2022/09/13 04:43:42;;;;;;;34.13;8.38;;;;;;;15.76;100.00;97504.09;5032385;28;20438;-55
2022/09/13 04:46:07;;;;;;;36.60;8.02;;;;;;;15.36;100.00;97506.00;5037866;28;20090;-58
2022/09/13 04:48:33;;;;;;;43.13;9.35;;;;;;;15.27;100.00;97502.19;5037647;28;20021;-56
2022/09/13 04:51:03;;;;;;;43.83;8.90;;;;;;;16.08;100.00;97493.13;5040525;28;20036;-55
2022/09/13 04:53:29;;;;;;;41.80;8.23;;;;;;;16.29;100.00;97492.50;5034093;28;20029;-55
2022/09/13 04:56:02;;;;;;;32.75;7.05;;;;;;;16.91;100.00;97507.31;5035637;28;20044;-54
2022/09/13 04:58:28;;;;;;;42.30;8.40;;;;;;;15.76;100.00;97503.28;5023611;28;20052;-54
2022/09/13 05:00:59;;;;;;;40.13;9.18;;;;;;;15.46;100.00;97524.59;5032838;28;20033;-55
2022/09/13 05:03:24;;;;;;;37.30;8.45;;;;;;;15.21;100.00;97527.09;5036800;28;20411;-54
2022/09/13 05:05:49;;;;;;;52.85;9.35;;;;;;;15.78;100.00;97522.41;5033564;28;20527;-56
2022/09/13 05:08:15;;;;;;;42.03;8.50;;;;;;;15.95;100.00;97524.72;5036812;28;20061;-58
2022/09/13 05:10:40;;;;;;;40.08;8.73;;;;;;;16.00;100.00;97521.75;5032858;28;20036;-56
2022/09/13 05:13:05;;;;;;;29.58;6.88;;;;;;;16.69;100.00;97516.78;5034330;28;20399;-54
2022/09/13 05:15:31;;;;;;;37.67;8.07;;;;;;;15.85;100.00;97515.78;5033120;28;20118;-54
2022/09/13 05:17:56;;;;;;;42.92;8.70;;;;;;;16.34;100.00;97520.19;5033499;28;20083;-55
2022/09/13 05:20:21;;;;;;;37.05;8.15;;;;;;;16.60;100.00;97506.06;5034168;28;20121;-54
2022/09/13 05:22:47;;;;;;;38.05;8.40;;;;;;;16.72;100.00;97508.63;5035901;28;20626;-56
2022/09/13 05:25:12;;;;;;;37.83;8.15;;;;;;;16.91;100.00;97509.94;5035418;28;20368;-55
2022/09/13 05:27:38;;;;;;;34.05;8.38;;;;;;;16.48;100.00;97505.16;5032831;28;20032;-54
2022/09/13 05:30:04;;;;;;;46.08;9.43;;;;;;;16.62;100.00;97507.63;5033313;28;20071;-55
2022/09/13 05:32:30;;;;;;;31.25;7.85;;;;;;;16.69;100.00;97500.09;5035225;28;20033;-54
2022/09/13 05:34:56;;;;;;;34.80;8.40;;;;;;;16.22;100.00;97521.06;5033662;28;20454;-55
2022/09/13 05:37:21;;;;;;;42.28;9.57;;;;;;;16.47;100.00;97508.75;5031059;28;20892;-55
2022/09/13 05:39:47;;;;;;;36.75;8.52;;;;;;;16.98;100.00;97508.50;5029758;28;20439;-55
2022/09/13 05:42:12;;;;;;;42.53;8.77;;;;;;;17.16;100.00;97493.13;5032496;28;20111;-54
2022/09/13 05:44:37;;;;;;;36.22;8.15;;;;;;;17.21;100.00;97488.34;5039921;28;20029;-56
2022/09/13 05:47:03;;;;;;;34.75;8.13;;;;;;;17.04;100.00;97483.50;5037085;28;20486;-56
2022/09/13 05:49:28;;;;;;;39.08;8.48;;;;;;;17.87;100.00;97472.69;5018619;28;20021;-54
2022/09/13 05:51:54;;;;;;;36.05;8.52;;;;;;;17.67;100.00;97476.03;5033012;28;20033;-54
2022/09/13 05:54:19;;;;;;;42.22;8.48;;;;;;;18.05;100.00;97483.59;5037089;28;20407;-55
2022/09/13 05:56:44;;;;;;;37.45;8.43;;;;;;;18.13;100.00;97480.34;5034931;28;20083;-58
2022/09/13 05:59:12;;;;;;;25.88;7.18;;;;;;;19.19;100.00;97476.94;5036556;28;20030;-57
2022/09/13 06:01:37;;;;;;;31.70;7.85;;;;;;;19.16;100.00;97479.00;5032768;28;20507;-55
2022/09/13 06:04:03;;;;;;;34.78;7.97;;;;;;;19.37;100.00;97477.19;5037400;28;20071;-55
2022/09/13 06:06:28;;;;;;;34.92;7.80;;;;;;;19.54;100.00;97477.56;5032580;28;20029;-55
2022/09/13 06:08:55;;;;;;;36.65;8.23;;;;;;;19.67;100.00;97464.94;5037997;28;20482;-58
2022/09/13 06:11:21;;;;;;;34.85;7.47;;;;;;;20.03;100.00;97468.00;5038865;28;20061;-56
2022/09/13 06:13:47;;;;;;;25.52;6.85;;;;;;;20.08;100.00;97479.03;5040086;28;20025;-55
2022/09/13 06:16:13;;;;;;;33.80;7.75;;;;;;;19.88;100.00;97472.84;5036007;28;20395;-58
2022/09/13 06:18:39;;;;;;;43.65;8.43;;;;;;;19.59;100.00;97480.63;5034955;28;20112;-55
2022/09/13 06:21:08;;;;;;;38.80;8.65;;;;;;;19.49;100.00;97491.16;5034563;28;20033;-57
2022/09/13 06:23:34;;;;;;;38.95;8.38;;;;;;;19.58;100.00;97492.19;5041063;28;20032;-55
2022/09/13 06:26:08;;;;;;;34.53;7.72;;;;;;;19.38;100.00;97493.91;5038578;28;20033;-55
2022/09/13 06:28:35;;;;;;;40.20;8.43;;;;;;;18.82;100.00;97495.03;5037572;28;20025;-55
2022/09/13 06:31:09;;;;;;;43.97;8.75;;;;;;;19.50;100.00;97492.00;5038942;28;20342;-55
2022/09/13 06:33:36;;;;;;;33.00;7.90;;;;;;;19.69;100.00;97492.09;5036830;28;20559;-58
2022/09/13 06:36:10;;;;;;;31.27;7.72;;;;;;;19.51;100.00;97501.63;5039351;28;20033;-58
2022/09/13 06:38:35;;;;;;;32.58;7.65;;;;;;;20.02;100.00;97500.75;5036744;28;20039;-55
2022/09/13 06:41:06;;;;;;;33.40;7.72;;;;;;;19.96;100.00;97503.91;5037982;28;20033;-56
2022/09/13 06:43:33;;;;;;;32.70;7.80;;;;;;;20.07;100.00;97498.56;5038300;28;20570;-55
2022/09/13 06:46:05;;;;;;;38.13;8.48;;;;;;;19.80;100.00;97497.34;5039239;28;20063;-55
2022/09/13 06:48:35;;;;;;;30.92;7.43;;;;;;;20.06;100.00;97504.81;5041576;28;20244;-55
2022/09/13 06:51:03;;;;;;;42.33;8.48;;;;;;;20.37;100.00;97494.16;5036743;28;20029;-57
2022/09/13 06:53:29;;;;;;;28.83;7.25;;;;;;;20.63;100.00;97493.66;5038583;28;20031;-56
2022/09/13 06:56:07;;;;;;;31.00;7.35;;;;;;;20.42;100.00;97489.28;5038288;28;20228;-55
2022/09/13 06:58:34;;;;;;;34.20;7.88;;;;;;;20.29;100.00;97480.75;5037630;28;20424;-55
2022/09/13 07:01:11;;;;;;;57.80;9.00;;;;;;;21.28;100.00;97492.06;5036479;28;20087;-55
2022/09/13 07:03:38;;;;;;;28.08;7.07;;;;;;;21.45;100.00;97487.91;5020066;28;20029;-56
2022/09/13 07:06:10;;;;;;;30.83;7.35;;;;;;;21.82;100.00;97481.75;5039991;28;20041;-55
2022/09/13 07:08:36;;;;;;;26.48;6.70;;;;;;;21.92;100.00;97484.34;5034898;28;20033;-56
2022/09/13 07:11:01;;;;;;;44.70;9.07;;;;;;;22.88;100.00;97490.06;5030251;28;20033;-57
2022/09/13 07:13:27;;;;;;;36.58;7.72;;;;;;;22.59;100.00;97489.44;5037322;28;20041;-57
2022/09/13 07:15:52;;;;;;;56.42;10.05;;;;;;;23.22;100.00;97489.34;5031262;28;20375;-57
2022/09/13 07:18:18;;;;;;;48.78;8.98;;;;;;;23.73;100.00;97491.31;5036587;28;20065;-56
2022/09/13 07:20:43;;;;;;;29.80;7.30;;;;;;;24.21;100.00;97487.25;5023315;28;20037;-55
2022/09/13 07:23:08;;;;;;;26.65;6.97;;;;;;;25.40;100.00;97491.41;5037351;28;20792;-58
2022/09/13 07:25:34;;;;;;;26.65;6.90;;;;;;;24.93;100.00;97487.56;5043388;28;20409;-56
2022/09/13 07:27:59;;;;;;;23.83;6.53;;;;;;;26.23;100.00;97492.84;5038672;28;20032;-59
2022/09/13 07:30:25;;;;;;;29.70;7.28;;;;;;;26.41;100.00;97497.91;5041755;28;20481;-56
2022/09/13 07:32:50;;;;;;;19.48;6.13;;;;;;;26.44;100.00;97496.75;5040896;28;20024;-58
2022/09/13 07:35:16;;;;;;;18.45;5.50;;;;;;;26.36;100.00;97500.31;5035934;28;20024;-56
2022/09/13 07:37:41;;;;;;;27.75;6.38;;;;;;;26.66;95.99;97503.16;5038451;28;20028;-59
2022/09/13 07:40:07;;;;;;;49.72;9.05;;;;;;;28.03;87.81;97506.66;5032960;28;20025;-56
2022/09/13 07:42:33;;;;;;;35.90;7.53;;;;;;;28.43;84.59;97506.31;5028968;28;20033;-58
2022/09/13 07:44:58;;;;;;;33.42;6.95;;;;;;;27.99;85.38;97509.88;5035374;28;20025;-56
2022/09/13 07:47:23;;;;;;;30.02;6.55;;;;;;;27.37;92.09;97502.97;5035339;28;20401;-57
2022/09/13 07:49:49;;;;;;;25.05;6.53;;;;;;;28.29;87.49;97504.47;5037926;28;20044;-55
2022/09/13 07:52:14;;;;;;;25.33;6.50;;;;;;;27.10;87.20;97506.00;5032897;28;20037;-56
2022/09/13 07:54:40;;;;;;;33.42;7.38;;;;;;;28.43;85.56;97500.94;5036086;28;20060;-57
2022/09/13 07:57:05;;;;;;;27.73;6.47;;;;;;;28.95;80.77;97505.25;5035117;28;20495;-56
2022/09/13 07:59:30;;;;;;;28.05;7.00;;;;;;;28.61;81.96;97508.63;5029827;28;20089;-55
2022/09/13 08:01:56;;;;;;;28.55;6.60;;;;;;;28.81;82.38;97508.81;5032556;28;20120;-55
2022/09/13 08:04:24;;;;;;;19.58;5.65;;;;;;;27.95;87.91;97508.59;5020544;28;20039;-55
2022/09/13 08:06:50;;;;;;;28.55;6.70;;;;;;;28.74;85.39;97514.13;5036918;28;20772;-56
2022/09/13 08:09:17;;;;;;;26.45;6.50;;;;;;;28.27;87.32;97505.53;5033273;28;20044;-57
2022/09/13 08:11:50;;;;;;;32.60;7.38;;;;;;;27.56;91.16;97493.59;5033509;28;20532;-57
2022/09/13 08:14:17;;;;;;;23.70;6.15;;;;;;;29.11;81.74;97498.78;5033687;28;20033;-58
2022/09/13 08:16:42;;;;;;;29.23;6.70;;;;;;;26.98;92.24;97493.22;5037640;28;20040;-57
2022/09/13 08:19:12;;;;;;;28.38;6.50;;;;;;;28.15;87.63;97498.97;5035338;28;20032;-58
2022/09/13 08:21:39;;;;;;;24.70;5.85;;;;;;;28.22;88.78;97504.41;5035462;28;20049;-57
2022/09/13 08:24:07;;;;;;;25.77;6.22;;;;;;;28.08;86.46;97506.09;5036894;28;20057;-55
2022/09/13 08:26:34;;;;;;;21.63;5.88;;;;;;;27.67;86.28;97495.81;5030427;28;20036;-58
2022/09/13 08:29:03;;;;;;;17.80;5.40;;;;;;;27.41;88.75;97506.97;5034030;28;20032;-55
2022/09/13 08:31:29;;;;;;;26.77;6.00;;;;;;;27.95;90.92;97513.97;5032136;28;20047;-54
2022/09/13 08:33:55;;;;;;;19.98;5.25;;;;;;;29.14;85.37;97525.28;5033506;28;20103;-54
2022/09/13 08:36:22;;;;;;;24.13;5.45;;;;;;;28.48;83.49;97514.63;5032129;28;20306;-56
2022/09/13 08:38:50;;;;;;;22.25;5.85;;;;;;;30.33;74.60;97523.66;5033309;28;20694;-58
2022/09/13 08:41:41;;;;;;;30.65;6.93;;;;;;;30.27;74.46;97525.25;5034644;28;20087;-56
2022/09/13 08:44:27;;;;;;;23.90;5.82;;;;;;;30.11;73.73;97518.34;5036794;28;20037;-55
2022/09/13 08:47:12;;;;;;;18.10;5.50;;;;;;;29.89;70.00;97511.41;5037510;28;20050;-59
2022/09/13 08:49:44;;;;;;;29.33;7.28;;;;;;;29.67;71.02;97513.31;5031003;28;20029;-56
2022/09/13 08:52:29;;;;;;;23.73;6.22;;;;;;;31.86;66.55;97517.66;5034863;28;20037;-54
2022/09/13 08:55:00;;;;;;;25.70;5.80;;;;;;;32.49;60.90;97514.34;5038713;28;20101;-55
2022/09/13 08:57:41;;;;;;;22.52;5.60;;;;;;;31.37;60.44;97518.91;5036203;28;20040;-55
2022/09/13 09:00:19;;;;;;;20.35;5.28;;;;;;;31.77;64.73;97513.53;5035743;28;20097;-56
2022/09/13 09:03:09;;;;;;;22.52;5.38;;;;;;;31.88;62.57;97515.56;5033125;28;20406;-56
2022/09/13 09:05:47;;;;;;;24.70;5.80;;;;;;;28.88;70.42;97503.53;5035494;28;20032;-57
2022/09/13 09:08:15;;;;;;;16.00;4.53;;;;;;;29.01;68.18;97496.44;5035447;28;20538;-58
2022/09/13 09:10:50;;;;;;;18.70;5.03;;;;;;;29.29;69.83;97490.28;5029294;28;20055;-58
2022/09/13 09:13:52;;;;;;;19.20;5.10;;;;;;;28.55;68.19;97487.91;5004414;28;20048;-57
2022/09/13 09:16:30;;;;;;;;;;;;;;;28.01;74.88;97494.44;5030289;28;20089;-56
2022/09/13 09:19:03;;;;;;;28.95;5.43;;;;;;;27.88;79.19;97509.31;5035880;28;19967;-55
2022/09/13 09:21:29;;;;;;;25.52;5.15;;;;;;;27.75;81.67;97503.75;5034260;28;20029;-55
2022/09/13 09:23:55;;;;;;;30.88;6.47;;;;;;;26.76;86.29;97498.41;5031284;28;20473;-56
2022/09/13 09:26:28;;;;;;;22.52;5.43;;;;;;;27.30;81.77;97495.66;5033063;28;20490;-54
2022/09/13 09:29:13;;;;;;;30.10;6.45;;;;;;;27.45;81.75;97486.84;5025758;28;20565;-57
2022/09/13 09:31:58;;;;;;;24.00;5.30;;;;;;;27.94;79.98;97507.78;5031342;28;20072;-59
2022/09/13 09:34:41;;;;;;;23.13;5.20;;;;;;;27.57;83.85;97501.44;5033677;28;20034;-57
2022/09/13 09:37:15;;;;;;;25.92;5.60;;;;;;;27.71;79.24;97512.34;5031817;28;20056;-55
2022/09/13 09:39:41;;;;;;;24.27;5.57;;;;;;;27.09;83.30;97508.88;5032482;28;20037;-55
2022/09/13 09:42:20;;;;;;;33.47;6.43;;;;;;;27.20;84.78;97510.28;5034020;28;20036;-55
2022/09/13 09:44:50;;;;;;;27.13;5.65;;;;;;;27.37;83.79;97503.81;5037992;28;20478;-56
2022/09/13 09:47:22;;;;;;;21.85;4.82;;;;;;;27.63;82.65;97505.25;5039759;28;20073;-57
2022/09/13 09:50:09;;;;;;;25.40;5.22;;;;;;;27.03;84.87;97499.72;5037638;28;20104;-55
2022/09/13 09:52:34;;;;;;;23.80;5.15;;;;;;;27.00;86.69;97504.59;5018514;28;20469;-58
2022/09/13 09:55:13;;;;;;;25.73;5.57;;;;;;;26.54;88.23;97497.34;5037603;28;20465;-56
2022/09/13 09:57:52;;;;;;;26.52;5.57;;;;;;;26.96;86.96;97498.75;5034763;28;20135;-57
2022/09/13 10:00:18;;;;;;;21.30;5.22;;;;;;;26.25;86.72;97496.19;5036253;28;20025;-57
2022/09/13 10:02:46;;;;;;;22.05;5.38;;;;;;;26.83;85.65;97490.50;5034777;28;20710;-57
2022/09/13 10:05:12;;;;;;;26.83;5.38;;;;;;;27.22;84.79;97492.19;5037186;28;20136;-56
2022/09/13 10:07:39;;;;;;;25.05;5.30;;;;;;;27.43;84.57;97487.00;5037448;28;21034;-57
2022/09/13 10:10:19;;;;;;;28.55;5.90;;;;;;;26.86;86.48;97476.78;5038415;28;20559;-58
2022/09/13 10:12:50;;;;;;;29.10;5.85;;;;;;;26.47;88.05;97475.84;5036859;28;20606;-56
2022/09/13 10:15:19;;;;;;;24.87;5.13;;;;;;;25.68;88.69;97467.00;5036589;28;20104;-55
2022/09/13 10:18:06;;;;;;;22.77;5.20;;;;;;;26.62;86.12;97440.34;5040290;28;20036;-55
2022/09/13 10:20:33;;;;;;;27.23;5.60;;;;;;;26.33;87.56;97439.97;5039090;28;20043;-57
2022/09/13 10:23:15;;;;;;;22.38;4.75;;;;;;;26.73;86.39;97448.78;5043585;28;20608;-57
2022/09/13 10:25:44;;;;;;;35.05;6.22;;;;;;;26.04;93.33;97447.84;5037542;28;20728;-56
2022/09/13 10:28:18;;;;;;;32.47;6.35;;;;;;;27.69;82.38;97440.19;5033443;28;20029;-58
2022/09/13 10:30:47;;;;;;;23.13;5.22;;;;;;;25.41;87.61;97426.34;5015191;28;20041;-58
2022/09/13 10:33:27;;;;;;;24.77;5.22;;;;;;;26.07;87.11;97418.09;5034144;28;20053;-58
2022/09/13 10:35:56;;;;;;;28.02;5.53;;;;;;;27.58;79.14;97425.41;5034349;28;20040;-58
2022/09/13 10:38:39;;;;;;;31.98;5.47;;;;;;;27.57;77.45;97425.59;5041466;28;20039;-59
2022/09/13 10:41:22;;;;;;;35.05;6.07;;;;;;;26.24;86.68;97418.84;5031621;28;20569;-57
2022/09/13 10:43:55;;;;;;;21.63;4.95;;;;;;;27.33;83.78;97430.19;5036304;28;20112;-58
2022/09/13 10:46:22;;;;;;;18.50;4.70;;;;;;;28.00;75.95;97436.50;5043561;28;20064;-56
2022/09/13 10:48:57;;;;;;;28.17;5.72;;;;;;;28.06;75.73;97443.78;5035429;28;20025;-57
2022/09/13 10:51:25;;;;;;;29.42;5.60;;;;;;;27.79;76.91;97439.91;5036773;28;20053;-58
2022/09/13 10:54:05;;;;;;;32.78;5.88;;;;;;;27.35;75.54;97432.69;5037926;28;20040;-59
2022/09/13 10:56:31;;;;;;;26.58;5.32;;;;;;;27.18;77.83;97434.69;5038350;28;20041;-59
2022/09/13 10:59:28;;;;;;;32.38;5.57;;;;;;;27.03;78.31;97424.78;5038946;28;20036;-56
2022/09/13 11:02:21;;;;;;;35.33;6.00;;;;;;;27.99;73.25;97440.19;5033776;28;20041;-57
2022/09/13 11:04:55;;;;;;;27.75;5.57;;;;;;;27.27;78.52;97431.75;5036060;28;20043;-56
2022/09/13 11:07:35;;;;;;;27.85;5.28;;;;;;;27.36;79.40;97419.13;5035893;28;20041;-55
2022/09/13 11:10:13;;;;;;;24.35;4.93;;;;;;;28.59;74.72;97425.63;5036774;28;20082;-55
2022/09/13 11:12:54;;;;;;;29.45;5.32;;;;;;;28.61;70.90;97434.31;5037709;28;20376;-56
2022/09/13 11:15:37;;;;;;;19.80;4.43;;;;;;;28.84;65.48;97433.31;5038710;28;20039;-58
2022/09/13 11:18:34;;;;;;;29.40;5.57;;;;;;;29.79;64.47;97447.22;5035922;28;20036;-58
2022/09/13 11:21:25;;;;;;;34.75;6.25;;;;;;;27.48;70.08;97433.75;5034242;28;20045;-57
2022/09/13 11:24:14;;;;;;;29.42;5.75;;;;;;;30.48;62.95;97430.16;5038159;28;20021;-57
2022/09/13 11:26:51;;;;;;;29.10;5.53;;;;;;;28.06;68.88;97430.38;5034384;28;20045;-56
2022/09/13 11:29:34;;;;;;;28.80;5.57;;;;;;;28.73;67.47;97420.38;5032879;28;20561;-60
2022/09/13 11:32:14;;;;;;;35.10;5.38;;;;;;;28.27;70.67;97413.53;5030304;28;20048;-58
2022/09/13 11:35:01;;;;;;;23.80;4.75;;;;;;;28.68;71.52;97417.47;5032698;28;20778;-56
2022/09/13 11:37:35;;;;;;;24.75;5.55;;;;;;;29.20;69.23;97410.88;5037912;28;20480;-56
2022/09/13 11:40:28;;;;;;;21.30;4.60;;;;;;;29.68;65.89;97410.97;5039320;28;20029;-59
2022/09/13 11:43:21;;;;;;;34.60;6.18;;;;;;;28.85;70.73;97413.47;5036727;28;20151;-56